createdAt,value
2019-01-20T00:01:29.705Z,6.58
2019-01-20T00:03:57.193Z,5.50
2019-01-20T00:06:24.514Z,6.10
2019-01-20T00:08:51.861Z,6.03
2019-01-20T00:11:19.196Z,5.33
2019-01-20T00:13:46.566Z,6.28
2019-01-20T00:16:13.901Z,5.92
2019-01-20T00:18:41.280Z,6.45
2019-01-20T00:21:08.686Z,6.40
2019-01-20T00:23:36.037Z,6.17
2019-01-20T00:26:03.358Z,7.17
2019-01-20T00:28:30.641Z,6.75
2019-01-20T00:30:58.079Z,6.40
2019-01-20T00:33:25.453Z,5.03
2019-01-20T00:35:52.799Z,5.58
2019-01-20T00:38:20.054Z,5.47
2019-01-20T00:40:47.391Z,5.67
2019-01-20T00:43:14.740Z,6.00
2019-01-20T00:45:42.125Z,5.35
2019-01-20T00:48:09.596Z,5.62
2019-01-20T00:50:36.995Z,6.20
2019-01-20T00:53:04.221Z,5.53
2019-01-20T00:55:31.557Z,5.67
2019-01-20T00:57:59.008Z,5.25
2019-01-20T01:00:28.547Z,5.75
2019-01-20T01:02:58.242Z,5.40
2019-01-20T01:05:25.869Z,5.95
2019-01-20T01:07:53.189Z,5.60
2019-01-20T01:10:20.681Z,5.37
2019-01-20T01:12:48.593Z,5.53
2019-01-20T01:15:15.841Z,6.37
2019-01-20T01:17:43.190Z,4.97
2019-01-20T01:20:11.844Z,5.22
2019-01-20T01:22:39.177Z,4.65
2019-01-20T01:25:08.513Z,5.22
2019-01-20T01:27:35.830Z,4.95
2019-01-20T01:30:04.927Z,4.75
2019-01-20T01:32:32.300Z,5.03
2019-01-20T01:34:59.725Z,5.33
2019-01-20T01:37:27.033Z,5.20
2019-01-20T01:39:54.373Z,5.28
2019-01-20T01:42:21.703Z,4.83
2019-01-20T01:44:49.053Z,5.45
2019-01-20T01:47:16.431Z,5.80
2019-01-20T01:49:43.866Z,4.97
2019-01-20T01:52:11.233Z,5.83
2019-01-20T01:54:38.552Z,5.50
2019-01-20T01:57:05.926Z,5.87
2019-01-20T01:59:33.282Z,5.92
2019-01-20T02:02:00.639Z,5.45
2019-01-20T02:04:27.961Z,5.80
2019-01-20T02:06:55.284Z,5.67
2019-01-20T02:09:22.644Z,6.25
2019-01-20T02:11:49.989Z,6.25
2019-01-20T02:14:17.293Z,5.60
2019-01-20T02:16:44.670Z,5.92
2019-01-20T02:19:12.058Z,5.72
2019-01-20T02:21:39.419Z,5.72
2019-01-20T02:24:06.824Z,4.85
2019-01-20T02:26:34.189Z,5.65
2019-01-20T02:29:01.533Z,5.40
2019-01-20T02:31:28.894Z,4.90
2019-01-20T02:33:56.243Z,5.30
2019-01-20T02:36:23.572Z,5.50
2019-01-20T02:38:50.892Z,5.70
2019-01-20T02:41:18.243Z,4.42
2019-01-20T02:43:45.695Z,5.00
2019-01-20T02:46:13.136Z,5.62
2019-01-20T02:48:40.388Z,4.65
2019-01-20T02:51:07.708Z,5.50
2019-01-20T02:53:35.042Z,5.28
2019-01-20T02:56:02.401Z,5.10
2019-01-20T02:58:29.772Z,5.78
2019-01-20T03:00:57.227Z,5.00
2019-01-20T03:03:24.642Z,5.12
2019-01-20T03:05:52.019Z,5.28
2019-01-20T03:08:19.410Z,5.47
2019-01-20T03:10:46.736Z,5.42
2019-01-20T03:13:14.044Z,4.75
2019-01-20T03:15:41.406Z,4.85
2019-01-20T03:18:08.873Z,4.85
2019-01-20T03:20:36.318Z,4.17
2019-01-20T03:23:03.647Z,4.65
2019-01-20T03:25:30.905Z,5.15
2019-01-20T03:27:58.222Z,4.95
2019-01-20T03:30:25.553Z,4.62
2019-01-20T03:32:52.906Z,4.97
2019-01-20T03:35:22.913Z,4.70
2019-01-20T03:37:50.242Z,4.55
2019-01-20T03:40:17.889Z,5.03
2019-01-20T03:42:45.389Z,4.75
2019-01-20T03:45:14.733Z,4.80
2019-01-20T03:47:42.122Z,5.83
2019-01-20T03:50:10.438Z,4.95
2019-01-20T03:52:37.797Z,4.75
2019-01-20T03:55:05.974Z,4.67
2019-01-20T03:57:33.432Z,4.53
2019-01-20T04:00:00.727Z,4.47
2019-01-20T04:02:28.089Z,5.10
2019-01-20T04:04:55.473Z,4.67
2019-01-20T04:07:22.793Z,4.78
2019-01-20T04:09:50.149Z,4.37
2019-01-20T04:12:20.829Z,4.70
2019-01-20T04:14:46.679Z,4.45
2019-01-20T04:17:14.465Z,4.47
2019-01-20T04:19:41.851Z,5.03
2019-01-20T04:22:09.186Z,5.35
2019-01-20T04:24:36.519Z,4.83
2019-01-20T04:27:03.855Z,4.75
2019-01-20T04:29:31.207Z,5.20
2019-01-20T04:31:58.565Z,4.58
2019-01-20T04:34:26.677Z,4.65
2019-01-20T04:36:54.032Z,4.72
2019-01-20T04:39:21.408Z,4.78
2019-01-20T04:41:48.741Z,4.95
2019-01-20T04:44:15.993Z,4.70
2019-01-20T04:46:43.243Z,4.75
2019-01-20T04:49:10.605Z,4.60
2019-01-20T04:51:37.839Z,4.97
2019-01-20T04:54:05.441Z,5.22
2019-01-20T04:56:32.815Z,4.75
2019-01-20T04:59:00.203Z,5.12
2019-01-20T05:01:27.592Z,5.47
2019-01-20T05:03:54.979Z,4.62
2019-01-20T05:06:22.281Z,5.10
2019-01-20T05:08:49.628Z,5.00
2019-01-20T05:11:17.013Z,5.00
2019-01-20T05:13:44.348Z,5.15
2019-01-20T05:16:11.805Z,5.53
2019-01-20T05:18:39.176Z,5.50
2019-01-20T05:21:06.606Z,4.60
2019-01-20T05:23:33.865Z,4.80
2019-01-20T05:26:01.239Z,4.70
2019-01-20T05:28:28.716Z,5.15
2019-01-20T05:30:56.099Z,4.83
2019-01-20T05:33:23.372Z,4.90
2019-01-20T05:35:50.628Z,5.12
2019-01-20T05:38:17.972Z,4.97
2019-01-20T05:40:45.351Z,4.58
2019-01-20T05:43:12.708Z,5.67
2019-01-20T05:45:40.174Z,4.65
2019-01-20T05:48:07.512Z,4.83
2019-01-20T05:50:34.776Z,5.20
2019-01-20T05:53:02.001Z,5.12
2019-01-20T05:55:29.270Z,4.87
2019-01-20T05:57:56.604Z,4.80
2019-01-20T06:00:29.208Z,5.50
2019-01-20T06:02:56.600Z,4.80
2019-01-20T06:05:24.011Z,4.90
2019-01-20T06:07:51.333Z,5.25
2019-01-20T06:10:18.737Z,4.97
2019-01-20T06:12:53.634Z,5.17
2019-01-20T06:15:16.959Z,5.58
2019-01-20T06:17:44.223Z,5.47
2019-01-20T06:20:11.614Z,4.72
2019-01-20T06:22:39.052Z,4.80
2019-01-20T06:25:06.427Z,4.78
2019-01-20T06:27:33.776Z,5.80
2019-01-20T06:30:01.112Z,5.37
2019-01-20T06:32:28.806Z,5.37
2019-01-20T06:34:56.139Z,5.10
2019-01-20T06:37:23.468Z,5.50
2019-01-20T06:39:50.770Z,4.90
2019-01-20T06:42:18.030Z,5.47
2019-01-20T06:44:45.348Z,5.25
2019-01-20T06:47:12.642Z,5.80
2019-01-20T06:49:39.988Z,5.20
2019-01-20T06:52:07.349Z,5.40
2019-01-20T06:54:34.652Z,5.62
2019-01-20T06:57:01.984Z,4.87
2019-01-20T06:59:29.221Z,5.42
2019-01-20T07:01:56.512Z,5.47
2019-01-20T07:04:23.865Z,5.75
2019-01-20T07:06:51.189Z,6.08
2019-01-20T07:09:18.605Z,6.10
2019-01-20T07:11:45.953Z,6.10
2019-01-20T07:14:13.341Z,6.20
2019-01-20T07:16:40.733Z,5.92
2019-01-20T07:19:08.046Z,5.58
2019-01-20T07:21:35.407Z,5.83
2019-01-20T07:24:03.052Z,5.03
2019-01-20T07:26:30.417Z,5.35
2019-01-20T07:28:57.811Z,5.85
2019-01-20T07:31:25.112Z,5.85
2019-01-20T07:33:52.329Z,5.92
2019-01-20T07:36:19.676Z,5.45
2019-01-20T07:38:47.009Z,6.35
2019-01-20T07:41:14.327Z,6.05
2019-01-20T07:43:41.795Z,6.28
2019-01-20T07:46:09.153Z,6.08
2019-01-20T07:48:36.489Z,6.47
2019-01-20T07:51:03.813Z,6.33
2019-01-20T07:53:31.180Z,5.97
2019-01-20T07:55:58.506Z,6.15
2019-01-20T07:58:25.821Z,6.87
2019-01-20T08:00:55.479Z,5.83
2019-01-20T08:03:22.792Z,6.58
2019-01-20T08:05:50.154Z,6.75
2019-01-20T08:08:17.492Z,6.42
2019-01-20T08:10:44.789Z,7.12
2019-01-20T08:13:12.186Z,7.03
2019-01-20T08:15:39.574Z,7.03
2019-01-20T08:18:07.052Z,7.33
2019-01-20T08:20:34.292Z,6.60
2019-01-20T08:23:03.203Z,7.28
2019-01-20T08:25:30.743Z,6.83
2019-01-20T08:27:58.228Z,7.35
2019-01-20T08:30:26.222Z,7.10
2019-01-20T08:32:53.901Z,7.20
2019-01-20T08:35:22.653Z,6.25
2019-01-20T08:37:49.987Z,7.10
2019-01-20T08:40:25.597Z,6.65
2019-01-20T08:42:52.969Z,6.83
2019-01-20T08:46:07.371Z,7.33
2019-01-20T08:48:34.891Z,6.58
2019-01-20T08:51:02.409Z,6.00
2019-01-20T08:53:29.916Z,7.05
2019-01-20T08:55:57.389Z,6.50
2019-01-20T08:58:24.889Z,6.78
2019-01-20T09:00:52.234Z,6.37
2019-01-20T09:03:19.594Z,6.62
2019-01-20T09:05:46.969Z,6.45
2019-01-20T09:08:14.324Z,6.17
2019-01-20T09:10:41.749Z,6.70
2019-01-20T09:13:10.192Z,6.40
2019-01-20T09:15:39.882Z,6.45
2019-01-20T09:18:10.259Z,6.78
2019-01-20T09:20:37.739Z,5.92
2019-01-20T09:23:05.193Z,6.30
2019-01-20T09:25:32.442Z,6.05
2019-01-20T09:27:59.801Z,6.28
2019-01-20T09:30:27.038Z,5.90
2019-01-20T09:32:54.376Z,5.87
2019-01-20T09:35:21.698Z,5.93
2019-01-20T09:37:49.029Z,6.13
2019-01-20T09:40:16.492Z,6.43
2019-01-20T09:42:43.736Z,6.90
2019-01-20T09:45:17.641Z,6.57
2019-01-20T09:47:44.985Z,6.50
2019-01-20T09:50:12.438Z,6.80
2019-01-20T09:52:39.816Z,6.90
2019-01-20T09:55:07.734Z,7.30
2019-01-20T09:57:35.060Z,6.80
2019-01-20T10:00:04.012Z,6.73
2019-01-20T10:02:31.390Z,6.47
2019-01-20T10:04:58.772Z,7.40
2019-01-20T10:07:25.992Z,7.37
2019-01-20T10:09:53.319Z,7.30
2019-01-20T10:12:20.524Z,7.30
2019-01-20T10:14:47.764Z,8.07
2019-01-20T10:17:15.084Z,6.57
2019-01-20T10:19:42.292Z,7.43
2019-01-20T10:22:09.524Z,6.70
2019-01-20T10:24:36.944Z,7.77
2019-01-20T10:27:04.248Z,6.87
2019-01-20T10:29:31.588Z,8.20
2019-01-20T10:31:58.801Z,7.60
2019-01-20T10:34:26.133Z,7.90
2019-01-20T10:36:54.243Z,7.63
2019-01-20T10:39:21.590Z,7.47
2019-01-20T10:41:49.018Z,7.27
2019-01-20T10:44:16.348Z,7.47
2019-01-20T10:46:43.686Z,8.20
2019-01-20T10:49:10.985Z,7.67
2019-01-20T10:51:38.329Z,7.43
2019-01-20T10:54:07.189Z,7.73
2019-01-20T10:56:34.678Z,7.87
2019-01-20T10:59:02.031Z,8.40
2019-01-20T11:01:29.347Z,7.93
2019-01-20T11:03:56.638Z,8.50
2019-01-20T11:06:23.877Z,8.53
2019-01-20T11:08:52.217Z,8.40
2019-01-20T11:11:19.430Z,8.27
2019-01-20T11:13:46.743Z,8.07
2019-01-20T11:16:13.987Z,8.27
2019-01-20T11:18:41.203Z,8.50
2019-01-20T11:21:08.537Z,8.47
2019-01-20T11:23:36.068Z,9.27
2019-01-20T11:26:03.731Z,8.67
2019-01-20T11:28:30.937Z,9.10
2019-01-20T11:30:58.222Z,9.33
2019-01-20T11:33:25.560Z,9.40
2019-01-20T11:35:52.869Z,10.30
2019-01-20T11:38:20.098Z,9.23
2019-01-20T11:40:47.440Z,9.70
2019-01-20T11:43:14.765Z,10.70
2019-01-20T11:45:42.047Z,10.67
2019-01-20T11:48:09.432Z,10.67
2019-01-20T11:50:36.729Z,10.43
2019-01-20T11:53:04.136Z,10.27
2019-01-20T11:55:31.459Z,10.53
2019-01-20T11:57:58.814Z,10.07
2019-01-20T12:00:28.398Z,11.50
2019-01-20T12:02:55.738Z,9.77
2019-01-20T12:05:23.049Z,10.57
2019-01-20T12:07:50.387Z,10.27
2019-01-20T12:10:17.693Z,10.27
2019-01-20T12:12:48.573Z,10.27
2019-01-20T12:15:16.316Z,10.13
2019-01-20T12:17:43.526Z,10.33
2019-01-20T12:20:10.878Z,10.57
2019-01-20T12:22:38.197Z,10.53
2019-01-20T12:25:08.399Z,10.60
2019-01-20T12:27:35.705Z,9.90
2019-01-20T12:30:04.324Z,10.80
2019-01-20T12:32:31.629Z,10.63
2019-01-20T12:34:59.066Z,10.53
2019-01-20T12:37:26.405Z,10.23
2019-01-20T12:39:53.770Z,11.47
2019-01-20T12:42:21.083Z,10.13
2019-01-20T12:44:48.341Z,9.80
2019-01-20T12:47:15.597Z,10.53
2019-01-20T12:49:42.965Z,10.37
2019-01-20T12:52:10.372Z,10.85
2019-01-20T12:54:37.770Z,10.37
2019-01-20T12:57:05.157Z,10.65
2019-01-20T12:59:32.371Z,11.15
2019-01-20T13:01:59.733Z,10.25
2019-01-20T13:04:27.067Z,9.95
2019-01-20T13:06:54.455Z,10.93
2019-01-20T13:09:22.176Z,9.63
2019-01-20T13:11:49.468Z,10.32
2019-01-20T13:14:16.761Z,9.48
2019-01-20T13:16:44.198Z,10.85
2019-01-20T13:19:11.528Z,9.93
2019-01-20T13:21:38.860Z,10.58
2019-01-20T13:24:06.142Z,10.10
2019-01-20T13:26:33.592Z,10.63
2019-01-20T13:29:00.955Z,9.93
2019-01-20T13:31:28.318Z,10.10
2019-01-20T13:33:55.714Z,10.80
2019-01-20T13:36:23.067Z,10.98
2019-01-20T13:38:50.492Z,10.55
2019-01-20T13:41:29.320Z,10.23
2019-01-20T13:43:57.044Z,10.05
2019-01-20T13:46:24.417Z,10.15
2019-01-20T13:48:51.782Z,10.48
2019-01-20T13:51:19.118Z,10.18
2019-01-20T13:53:49.086Z,10.63
2019-01-20T13:56:16.527Z,9.80
2019-01-20T13:58:43.781Z,10.05
2019-01-20T14:01:10.956Z,9.33
2019-01-20T14:03:38.292Z,9.43
2019-01-20T14:06:05.817Z,9.48
2019-01-20T14:08:33.039Z,9.40
2019-01-20T14:11:00.269Z,9.45
2019-01-20T14:13:27.666Z,9.05
2019-01-20T14:15:55.020Z,8.93
2019-01-20T14:18:22.256Z,9.03
2019-01-20T14:20:49.600Z,9.03
2019-01-20T14:23:17.012Z,9.03
2019-01-20T14:25:44.405Z,8.68
2019-01-20T14:28:11.805Z,8.85
2019-01-20T14:30:39.152Z,9.05
2019-01-20T14:33:06.357Z,8.68
2019-01-20T14:35:33.660Z,8.38
2019-01-20T14:38:00.873Z,8.18
2019-01-20T14:40:28.280Z,8.63
2019-01-20T14:42:55.634Z,8.23
2019-01-20T14:45:22.952Z,8.15
2019-01-20T14:47:50.304Z,8.43
2019-01-20T14:50:22.045Z,8.28
2019-01-20T14:52:49.481Z,8.48
2019-01-20T14:55:16.805Z,8.65
2019-01-20T14:57:44.344Z,8.10
2019-01-20T15:00:15.137Z,7.58
2019-01-20T15:02:42.541Z,7.92
2019-01-20T15:05:10.166Z,7.92
2019-01-20T15:07:37.420Z,7.35
2019-01-20T15:10:05.694Z,8.03
2019-01-20T15:12:33.015Z,6.67
2019-01-20T15:15:00.356Z,7.30
2019-01-20T15:17:27.715Z,8.00
2019-01-20T15:19:54.957Z,7.37
2019-01-20T15:22:22.233Z,7.72
2019-01-20T15:24:49.617Z,7.17
2019-01-20T15:27:17.013Z,8.60
2019-01-20T15:29:46.748Z,9.03
2019-01-20T15:32:14.104Z,7.95
2019-01-20T15:34:41.306Z,7.40
2019-01-20T15:37:08.701Z,7.15
2019-01-20T15:39:36.138Z,7.67
2019-01-20T15:42:03.765Z,7.90
2019-01-20T15:44:31.232Z,7.92
2019-01-20T15:46:58.449Z,7.83
2019-01-20T15:49:25.925Z,8.28
2019-01-20T15:51:53.295Z,8.53
2019-01-20T15:54:20.692Z,8.40
2019-01-20T15:56:48.005Z,8.45
2019-01-20T15:59:15.441Z,8.25
2019-01-20T16:01:42.650Z,8.78
2019-01-20T16:04:09.965Z,9.20
2019-01-20T16:06:37.307Z,9.53
2019-01-20T16:09:07.848Z,9.68
2019-01-20T16:11:35.187Z,9.90
2019-01-20T16:14:02.493Z,10.15
2019-01-20T16:16:29.829Z,10.20
2019-01-20T16:18:57.167Z,11.33
2019-01-20T16:21:24.504Z,11.40
2019-01-20T16:23:51.794Z,10.18
2019-01-20T16:26:19.138Z,10.48
2019-01-20T16:28:46.487Z,9.85
2019-01-20T16:31:14.035Z,11.10
2019-01-20T16:33:41.373Z,10.18
2019-01-20T16:36:08.694Z,9.65
2019-01-20T16:38:36.033Z,10.18
2019-01-20T16:41:03.323Z,10.48
2019-01-20T16:43:30.615Z,10.08
2019-01-20T16:46:00.219Z,11.90
2019-01-20T16:48:27.623Z,10.30
2019-01-20T16:50:55.018Z,10.80
2019-01-20T16:53:22.375Z,11.20
2019-01-20T16:55:49.760Z,10.32
2019-01-20T16:58:17.013Z,10.58
2019-01-20T17:00:45.308Z,10.43
2019-01-20T17:03:13.172Z,10.60
2019-01-20T17:05:40.517Z,11.43
2019-01-20T17:08:13.574Z,12.03
2019-01-20T17:10:41.628Z,12.63
2019-01-20T17:13:09.516Z,12.37
2019-01-20T17:15:39.774Z,12.85
2019-01-20T17:18:08.615Z,12.43
2019-01-20T17:20:35.916Z,13.50
2019-01-20T17:23:03.383Z,12.20
2019-01-20T17:25:32.634Z,11.95
2019-01-20T17:28:01.847Z,12.03
2019-01-20T17:30:30.240Z,11.83
2019-01-20T17:32:57.435Z,12.20
2019-01-20T17:35:24.760Z,12.05
2019-01-20T17:37:52.137Z,12.07
2019-01-20T17:40:22.015Z,11.55
2019-01-20T17:42:49.356Z,12.03
2019-01-20T17:45:19.438Z,12.78
2019-01-20T17:47:46.782Z,12.50
2019-01-20T17:50:17.580Z,12.55
2019-01-20T17:52:45.336Z,12.93
2019-01-20T17:55:12.769Z,12.65
2019-01-20T17:57:40.132Z,11.85
2019-01-20T18:00:10.906Z,12.47
2019-01-20T18:02:38.127Z,13.53
2019-01-20T18:05:07.093Z,15.23
2019-01-20T18:07:34.435Z,18.42
2019-01-20T18:10:02.062Z,17.87
2019-01-20T18:12:29.442Z,14.60
2019-01-20T18:14:56.758Z,16.02
2019-01-20T18:17:24.024Z,17.42
2019-01-20T18:19:51.332Z,14.73
2019-01-20T18:22:18.782Z,14.73
2019-01-20T18:24:46.287Z,16.27
2019-01-20T18:27:13.628Z,15.75
2019-01-20T18:29:40.926Z,16.95
2019-01-20T18:32:08.140Z,16.60
2019-01-20T18:34:37.387Z,16.50
2019-01-20T18:37:04.745Z,16.85
2019-01-20T18:39:32.251Z,17.00
2019-01-20T18:41:59.551Z,17.87
2019-01-20T18:44:26.996Z,16.62
2019-01-20T18:46:54.472Z,17.17
2019-01-20T18:49:21.837Z,17.62
2019-01-20T18:51:49.236Z,17.07
2019-01-20T18:54:18.772Z,18.07
2019-01-20T18:56:46.053Z,17.00
2019-01-20T18:59:13.582Z,17.55
2019-01-20T19:01:40.974Z,16.50
2019-01-20T19:04:08.362Z,16.50
2019-01-20T19:06:35.762Z,16.80
2019-01-20T19:09:06.171Z,16.65
2019-01-20T19:11:33.477Z,17.12
2019-01-20T19:14:00.873Z,16.82
2019-01-20T19:16:28.249Z,17.87
2019-01-20T19:18:55.694Z,16.95
2019-01-20T19:21:23.053Z,17.87
2019-01-20T19:23:50.411Z,18.52
2019-01-20T19:26:18.042Z,20.02
2019-01-20T19:28:45.427Z,22.98
2019-01-20T19:31:12.806Z,20.45
2019-01-20T19:33:40.172Z,21.27
2019-01-20T19:36:07.653Z,20.72
2019-01-20T19:38:35.054Z,22.60
2019-01-20T19:41:02.431Z,22.27
2019-01-20T19:43:32.895Z,19.80
2019-01-20T19:46:00.335Z,19.95
2019-01-20T19:48:27.682Z,18.00
2019-01-20T19:50:55.054Z,18.70
2019-01-20T19:53:25.168Z,21.33
2019-01-20T19:55:52.819Z,23.38
2019-01-20T19:58:20.155Z,23.02
2019-01-20T20:00:49.945Z,24.40
2019-01-20T20:03:20.741Z,26.12
2019-01-20T20:05:48.133Z,22.93
2019-01-20T20:08:15.393Z,23.02
2019-01-20T20:10:42.919Z,19.02
2019-01-20T20:13:10.351Z,18.17
2019-01-20T20:15:37.677Z,22.32
2019-01-20T20:18:05.370Z,21.20
2019-01-20T20:20:32.753Z,20.85
2019-01-20T20:23:00.031Z,21.00
2019-01-20T20:25:27.575Z,20.23
2019-01-20T20:27:55.087Z,20.35
2019-01-20T20:30:41.901Z,20.45
2019-01-20T20:33:09.269Z,20.05
2019-01-20T20:35:36.605Z,20.45
2019-01-20T20:38:03.978Z,19.45
2019-01-20T20:40:31.354Z,18.12
2019-01-20T20:42:58.953Z,18.27
2019-01-20T20:45:26.656Z,17.52
2019-01-20T20:47:54.124Z,17.23
2019-01-20T20:50:21.478Z,18.92
2019-01-20T20:52:48.801Z,19.35
2019-01-20T20:55:18.069Z,19.65
2019-01-20T20:57:45.305Z,20.12
2019-01-20T21:00:27.232Z,19.17
2019-01-20T21:02:54.543Z,19.27
2019-01-20T21:05:23.161Z,19.77
2019-01-20T21:07:50.593Z,21.85
2019-01-20T21:10:17.934Z,20.92
2019-01-20T21:12:45.301Z,22.77
2019-01-20T21:15:13.737Z,23.02
2019-01-20T21:17:47.849Z,21.37
2019-01-20T21:20:13.407Z,21.62
2019-01-20T21:22:40.636Z,20.90
2019-01-20T21:25:09.035Z,20.50
2019-01-20T21:27:36.315Z,22.67
2019-01-20T21:30:06.197Z,21.62
2019-01-20T21:32:33.434Z,20.88
2019-01-20T21:35:00.745Z,21.68
2019-01-20T21:37:27.945Z,20.43
2019-01-20T21:39:55.233Z,20.77
2019-01-20T21:42:22.473Z,20.60
2019-01-20T21:44:49.793Z,20.27
2019-01-20T21:47:17.130Z,20.62
2019-01-20T21:49:50.162Z,20.40
2019-01-20T21:52:18.146Z,19.98
2019-01-20T21:54:45.529Z,20.62
2019-01-20T21:57:12.815Z,19.80
2019-01-20T21:59:40.196Z,18.95
2019-01-20T22:02:07.601Z,19.55
2019-01-20T22:04:34.994Z,19.62
2019-01-20T22:07:02.214Z,19.52
2019-01-20T22:09:29.442Z,19.10
2019-01-20T22:11:56.768Z,20.52
2019-01-20T22:14:24.024Z,20.72
2019-01-20T22:16:52.950Z,19.40
2019-01-20T22:19:20.438Z,19.77
2019-01-20T22:21:47.803Z,18.98
2019-01-20T22:24:15.159Z,20.15
2019-01-20T22:26:42.515Z,21.50
2019-01-20T22:29:09.954Z,19.05
2019-01-20T22:31:37.298Z,20.15
2019-01-20T22:34:04.689Z,19.65
2019-01-20T22:36:32.129Z,21.57
2019-01-20T22:38:59.449Z,19.80
2019-01-20T22:41:26.797Z,21.02
2019-01-20T22:43:54.122Z,19.70
2019-01-20T22:46:21.605Z,20.77
2019-01-20T22:48:48.821Z,20.27
2019-01-20T22:51:16.237Z,20.05
2019-01-20T22:53:46.561Z,21.57
2019-01-20T22:56:14.010Z,20.77
2019-01-20T22:58:41.352Z,21.30
2019-01-20T23:01:19.404Z,22.17
2019-01-20T23:03:46.781Z,21.05
2019-01-20T23:06:14.131Z,21.27
2019-01-20T23:08:41.475Z,20.43
2019-01-20T23:11:08.821Z,19.92
2019-01-20T23:13:36.238Z,20.48
2019-01-20T23:16:09.689Z,21.82
2019-01-20T23:18:37.090Z,21.57
2019-01-20T23:21:04.436Z,20.97
2019-01-20T23:23:31.822Z,20.92
2019-01-20T23:25:59.032Z,21.33
2019-01-20T23:28:26.436Z,21.65
2019-01-20T23:30:54.020Z,19.55
2019-01-20T23:33:21.497Z,20.75
2019-01-20T23:35:48.805Z,20.97
2019-01-20T23:38:16.042Z,20.80
2019-01-20T23:40:43.448Z,24.82
2019-01-20T23:43:10.779Z,26.87
2019-01-20T23:45:38.147Z,26.23
2019-01-20T23:48:05.494Z,23.47
2019-01-20T23:50:32.927Z,23.45
2019-01-20T23:53:00.177Z,21.05
2019-01-20T23:55:27.527Z,22.25
2019-01-20T23:57:54.846Z,23.60
